createdAt,value
2019-03-13T00:03:36.787Z,99614.85
2019-03-13T00:08:39.583Z,99632.95
2019-03-13T00:13:42.412Z,99634.63
2019-03-13T00:18:45.180Z,99639.52
2019-03-13T00:23:47.913Z,99662.15
2019-03-13T00:28:50.697Z,99669.28
2019-03-13T00:33:53.441Z,99678.03
2019-03-13T00:38:56.180Z,99674.23
2019-03-13T00:43:58.905Z,99676.97
2019-03-13T00:49:01.655Z,99688.37
2019-03-13T00:54:04.378Z,99697.09
2019-03-13T00:59:07.161Z,99688.05
2019-03-13T01:04:29.199Z,99692.12
2019-03-13T01:09:31.918Z,99700.64
2019-03-13T01:14:34.666Z,99703.78
2019-03-13T01:19:37.445Z,99704.66
2019-03-13T01:24:40.168Z,99705.35
2019-03-13T01:29:42.916Z,99718.98
2019-03-13T01:34:56.224Z,99702.75
2019-03-13T01:39:58.969Z,99710.76
2019-03-13T01:45:01.742Z,99705.97
2019-03-13T01:50:04.808Z,99714.45
2019-03-13T01:55:07.762Z,99725.94
2019-03-13T02:00:11.903Z,99733.12
2019-03-13T02:05:14.735Z,99729.90
2019-03-13T02:10:17.465Z,99732.41
2019-03-13T02:15:20.492Z,99731.11
2019-03-13T02:20:23.340Z,99734.09
2019-03-13T02:25:26.052Z,99730.00
2019-03-13T02:30:30.765Z,99722.95
2019-03-13T02:35:33.500Z,99725.70
2019-03-13T02:40:36.236Z,99708.62
2019-03-13T02:45:38.995Z,99706.47
2019-03-13T02:50:41.726Z,99697.17
2019-03-13T02:55:44.458Z,99688.07
2019-03-13T03:01:05.511Z,99691.66
2019-03-13T03:06:08.202Z,99701.63
2019-03-13T03:11:10.915Z,99698.95
2019-03-13T03:16:13.597Z,99698.45
2019-03-13T03:21:16.463Z,99689.73
2019-03-13T03:26:19.234Z,99685.35
2019-03-13T03:31:21.921Z,99688.42
2019-03-13T03:36:24.598Z,99684.64
2019-03-13T03:41:27.955Z,99677.25
2019-03-13T03:46:30.643Z,99677.89
2019-03-13T03:51:33.354Z,99691.30
2019-03-13T03:56:36.045Z,99699.02
2019-03-13T04:01:38.749Z,99687.52
2019-03-13T04:06:41.891Z,99686.03
2019-03-13T04:11:44.713Z,99673.75
2019-03-13T04:16:47.406Z,99669.40
2019-03-13T04:21:50.093Z,99660.98
2019-03-13T04:26:52.811Z,99659.91
2019-03-13T04:31:55.518Z,99636.22
2019-03-13T04:36:58.219Z,99663.70
2019-03-13T04:42:00.928Z,99660.98
2019-03-13T04:47:03.635Z,99661.40
2019-03-13T04:52:06.336Z,99655.72
2019-03-13T04:57:09.028Z,99656.45
2019-03-13T05:02:11.738Z,99659.73
2019-03-13T05:07:14.452Z,99656.23
2019-03-13T05:12:17.175Z,99645.27
2019-03-13T05:17:19.875Z,99639.94
2019-03-13T05:22:22.605Z,99640.26
2019-03-13T05:27:25.312Z,99646.00
2019-03-13T05:32:27.999Z,99650.20
2019-03-13T05:37:30.788Z,99646.51
2019-03-13T05:42:33.533Z,99643.48
2019-03-13T05:47:36.248Z,99655.52
2019-03-13T05:52:38.954Z,99651.98
2019-03-13T05:57:42.128Z,99652.63
2019-03-13T06:02:47.751Z,99659.11
2019-03-13T06:07:50.403Z,99650.69
2019-03-13T06:12:53.236Z,99650.59
2019-03-13T06:17:55.964Z,99641.48
2019-03-13T06:22:58.659Z,99645.38
2019-03-13T06:28:01.370Z,99626.63
2019-03-13T06:33:04.099Z,99629.34
2019-03-13T06:38:06.783Z,99642.52
2019-03-13T06:43:09.481Z,99637.89
2019-03-13T06:48:12.176Z,99641.84
2019-03-13T06:53:14.868Z,99633.53
2019-03-13T06:58:21.959Z,99633.60
2019-03-13T07:03:36.067Z,99597.03
2019-03-13T07:09:10.082Z,99620.37
2019-03-13T07:14:47.591Z,99596.39
2019-03-13T07:20:18.543Z,99604.45
2019-03-13T07:25:43.700Z,99591.16
2019-03-13T07:31:11.612Z,99599.63
2019-03-13T07:36:25.059Z,99613.73
2019-03-13T07:41:50.247Z,99616.84
2019-03-13T07:47:12.583Z,99599.76
2019-03-13T07:52:33.623Z,99619.35
2019-03-13T07:57:45.651Z,99585.59
2019-03-13T08:02:53.561Z,99585.48
2019-03-13T08:08:09.576Z,99580.47
2019-03-13T08:13:29.191Z,99582.50
2019-03-13T08:18:49.073Z,99581.05
2019-03-13T08:24:14.128Z,99574.09
2019-03-13T08:29:40.230Z,99573.06
2019-03-13T08:34:58.290Z,99559.98
2019-03-13T08:40:18.715Z,99542.58
2019-03-13T08:45:46.769Z,99569.52
2019-03-13T08:50:57.803Z,99565.06
2019-03-13T08:56:08.383Z,99570.20
2019-03-13T09:01:33.389Z,99564.20
2019-03-13T09:06:52.664Z,99550.75
2019-03-13T09:12:16.051Z,99563.42
2019-03-13T09:17:36.816Z,99559.70
2019-03-13T09:22:48.587Z,99564.53
2019-03-13T09:28:09.399Z,99570.43
2019-03-13T09:33:21.319Z,99544.89
2019-03-13T09:38:29.281Z,99557.78
2019-03-13T09:43:59.835Z,99559.48
2019-03-13T09:49:39.822Z,99549.78
2019-03-13T09:54:49.814Z,99527.42
2019-03-13T10:00:10.767Z,99545.61
2019-03-13T10:05:20.687Z,99545.49
2019-03-13T10:10:45.541Z,99539.84
2019-03-13T10:15:59.817Z,99509.03
2019-03-13T10:21:23.013Z,99514.80
2019-03-13T10:26:48.108Z,99527.17
2019-03-13T10:31:56.926Z,99514.26
2019-03-13T10:37:19.274Z,99502.18
2019-03-13T10:42:40.490Z,99511.73
2019-03-13T10:48:20.698Z,99508.53
2019-03-13T10:53:44.701Z,99515.36
2019-03-13T10:59:00.172Z,99514.89
2019-03-13T11:04:10.763Z,99515.51
2019-03-13T11:09:31.864Z,99524.81
2019-03-13T11:14:57.003Z,99522.80
2019-03-13T11:20:21.930Z,99532.38
2019-03-13T11:25:30.981Z,99541.87
2019-03-13T11:30:42.606Z,99545.16
2019-03-13T11:36:02.612Z,99533.04
2019-03-13T11:41:23.810Z,99517.12
2019-03-13T11:46:54.977Z,99522.54
2019-03-13T11:52:23.251Z,99523.90
2019-03-13T11:57:51.236Z,99506.26
2019-03-13T12:03:11.980Z,99496.05
2019-03-13T12:08:32.316Z,99499.73
2019-03-13T12:13:44.918Z,99501.36
2019-03-13T12:18:56.940Z,99483.06
2019-03-13T12:24:09.411Z,99479.20
2019-03-13T12:29:28.535Z,99488.73
2019-03-13T12:34:49.987Z,99483.68
2019-03-13T12:40:12.343Z,99472.38
2019-03-13T12:45:29.289Z,99460.78
2019-03-13T12:50:37.908Z,99445.02
2019-03-13T12:55:59.137Z,99456.94
2019-03-13T13:01:09.732Z,99444.48
2019-03-13T13:06:34.655Z,99450.63
2019-03-13T13:11:55.786Z,99438.51
2019-03-13T13:17:15.345Z,99444.26
2019-03-13T13:22:18.082Z,99433.94
2019-03-13T13:27:20.782Z,99421.82
2019-03-13T13:32:23.492Z,99425.34
2019-03-13T13:37:26.208Z,99409.23
2019-03-13T13:42:28.923Z,99411.92
2019-03-13T13:47:31.603Z,99416.14
2019-03-13T13:52:34.324Z,99417.03
2019-03-13T13:57:37.040Z,99413.62
2019-03-13T14:02:39.802Z,99409.25
2019-03-13T14:07:42.498Z,99428.76
2019-03-13T14:12:45.219Z,99437.78
2019-03-13T14:17:47.943Z,99460.45
2019-03-13T14:22:50.663Z,99454.35
2019-03-13T14:27:53.369Z,99460.53
2019-03-13T14:32:56.081Z,99460.37
2019-03-13T14:37:58.776Z,99447.27
2019-03-13T14:43:01.489Z,99452.02
2019-03-13T14:48:04.179Z,99447.72
2019-03-13T14:53:06.896Z,99451.94
2019-03-13T14:58:09.642Z,99449.47
2019-03-13T15:03:12.388Z,99440.70
2019-03-13T15:08:15.081Z,99438.95
2019-03-13T15:13:17.779Z,99444.19
2019-03-13T15:18:20.502Z,99423.88
2019-03-13T15:23:23.225Z,99428.69
2019-03-13T15:28:25.938Z,99420.72
2019-03-13T15:33:28.644Z,99406.78
2019-03-13T15:38:31.369Z,99411.20
2019-03-13T15:43:34.096Z,99416.44
2019-03-13T15:48:36.798Z,99419.91
2019-03-13T15:53:39.488Z,99411.03
2019-03-13T15:58:42.184Z,99411.21
2019-03-13T16:03:48.781Z,99419.08
2019-03-13T16:08:51.575Z,99423.47
2019-03-13T16:13:54.291Z,99412.55
2019-03-13T16:18:57.010Z,99411.48
2019-03-13T16:23:59.704Z,99407.94
2019-03-13T16:29:02.425Z,99425.34
2019-03-13T16:34:05.141Z,99425.70
2019-03-13T16:39:07.984Z,99456.17
2019-03-13T16:44:10.679Z,99451.75
2019-03-13T16:49:13.376Z,99435.20
2019-03-13T16:54:16.079Z,99424.70
2019-03-13T16:59:18.782Z,99421.70
2019-03-13T17:04:21.630Z,99431.47
2019-03-13T17:09:25.388Z,99429.08
2019-03-13T17:14:28.208Z,99431.28
2019-03-13T17:19:31.808Z,99428.38
2019-03-13T17:24:39.172Z,99423.91
2019-03-13T17:29:42.385Z,99435.88
2019-03-13T17:34:46.978Z,99458.14
2019-03-13T17:39:51.788Z,99465.61
2019-03-13T17:44:54.884Z,99453.48
2019-03-13T17:49:58.098Z,99456.16
2019-03-13T17:55:00.851Z,99456.11
2019-03-13T18:00:05.388Z,99453.31
2019-03-13T18:05:08.328Z,99457.53
2019-03-13T18:10:13.625Z,99473.95
2019-03-13T18:15:17.152Z,99476.22
2019-03-13T18:20:19.876Z,99475.65
2019-03-13T18:25:22.786Z,99486.00
2019-03-13T18:30:25.587Z,99488.75
2019-03-13T18:35:28.313Z,99490.84
2019-03-13T18:40:31.022Z,99493.96
2019-03-13T18:45:33.872Z,99484.46
2019-03-13T18:50:36.583Z,99492.22
2019-03-13T18:55:39.518Z,99494.62
2019-03-13T19:00:42.272Z,99495.12
2019-03-13T19:05:45.169Z,99501.31
2019-03-13T19:10:47.895Z,99513.25
2019-03-13T19:15:50.736Z,99525.27
2019-03-13T19:20:54.157Z,99519.69
2019-03-13T19:25:57.174Z,99545.38
2019-03-13T19:30:59.866Z,99557.03
2019-03-13T19:36:02.563Z,99557.39
2019-03-13T19:41:08.466Z,99567.23
2019-03-13T19:46:10.080Z,99574.09
2019-03-13T19:56:28.704Z,99519.63
2019-03-13T20:01:32.769Z,99585.45
2019-03-13T20:06:42.225Z,99587.45
2019-03-13T20:11:40.116Z,99601.56
2019-03-13T20:16:42.815Z,99605.36
2019-03-13T20:21:45.504Z,99599.07
2019-03-13T20:26:48.218Z,99613.83
2019-03-13T20:31:51.041Z,99624.98
2019-03-13T20:36:53.820Z,99645.05
2019-03-13T20:41:56.522Z,99641.95
2019-03-13T20:46:59.225Z,99652.27
2019-03-13T20:52:01.936Z,99659.09
2019-03-13T20:57:04.664Z,99672.41
2019-03-13T21:02:07.388Z,99678.58
2019-03-13T21:07:10.099Z,99678.78
2019-03-13T21:12:12.788Z,99701.90
2019-03-13T21:17:15.506Z,99703.34
2019-03-13T21:22:18.219Z,99709.13
2019-03-13T21:27:20.922Z,99709.49
2019-03-13T21:32:23.649Z,99707.14
2019-03-13T21:37:26.382Z,99708.73
2019-03-13T21:42:29.126Z,99719.48
2019-03-13T21:47:31.857Z,99723.33
2019-03-13T21:52:34.596Z,99740.10
2019-03-13T21:57:37.308Z,99745.86
2019-03-13T22:02:40.097Z,99743.34
2019-03-13T22:07:43.070Z,99770.23
2019-03-13T22:12:45.771Z,99778.21
2019-03-13T22:17:48.575Z,99791.69
2019-03-13T22:22:51.278Z,99804.09
2019-03-13T22:27:53.970Z,99818.30
2019-03-13T22:32:56.722Z,99822.66
2019-03-13T22:37:59.428Z,99833.59
2019-03-13T22:43:02.144Z,99827.05
2019-03-13T22:48:04.846Z,99838.36
2019-03-13T22:53:07.584Z,99843.23
2019-03-13T22:58:10.284Z,99846.38
2019-03-13T23:03:13.077Z,99852.61
2019-03-13T23:08:17.251Z,99856.48
2019-03-13T23:13:20.116Z,99857.95
2019-03-13T23:18:22.964Z,99848.77
2019-03-13T23:23:25.672Z,99870.95
2019-03-13T23:28:28.336Z,99885.27
2019-03-13T23:33:31.047Z,99896.69
2019-03-13T23:38:33.762Z,99913.65
2019-03-13T23:43:36.487Z,99926.47
2019-03-13T23:48:39.257Z,99938.95
2019-03-13T23:53:42.002Z,99939.96
2019-03-13T23:58:44.729Z,99948.58
